Shubra el-Kheima, Egypt
Current Conditions -  °F | °C
As of 8:30 PM on Thursday 23 Oct 2014 (Local Time) from HECA Reporting Station
Clear Clear  
Wind Chill: 75°   Ceiling: Unl
Heat Index: 75°   Visibility: 4mi
Dew Point: 41°   Wind: 0mph
Humidity: 29%   Direction: NA
Pressure: 30"   Gusts: NA
Location:  30.1°N, 31.25°E
Report Text: HECA 231830Z 00000KT 6000 NSC 24/05 Q1016 NOSIG
Loading
Personal Weather Stations






























Interactive Weather Map
Tropical Storm Tracking
New forecast layout! Learn more

10-Day Weather Forecast

Advertisements
Track Severe Weather on mobile